sensor_id;sensor_type;location;lat;lon;timestamp;P1;durP1;ratioP1;P2;durP2;ratioP2
40675;SDS011;26359;48.750;9.314;2023-05-29T00:01:12;13.73;;;11.90;;
40675;SDS011;26359;48.750;9.314;2023-05-29T00:03:38;12.70;;;10.45;;
40675;SDS011;26359;48.750;9.314;2023-05-29T00:06:03;12.27;;;10.00;;
40675;SDS011;26359;48.750;9.314;2023-05-29T00:08:30;14.65;;;9.90;;
40675;SDS011;26359;48.750;9.314;2023-05-29T00:10:56;12.68;;;9.73;;
40675;SDS011;26359;48.750;9.314;2023-05-29T00:13:22;12.10;;;10.32;;
40675;SDS011;26359;48.750;9.314;2023-05-29T00:15:48;13.60;;;8.25;;
40675;SDS011;26359;48.750;9.314;2023-05-29T00:18:13;11.98;;;9.82;;
40675;SDS011;26359;48.750;9.314;2023-05-29T00:20:39;10.20;;;8.45;;
40675;SDS011;26359;48.750;9.314;2023-05-29T00:23:05;12.43;;;9.73;;
40675;SDS011;26359;48.750;9.314;2023-05-29T00:25:31;10.85;;;8.60;;
40675;SDS011;26359;48.750;9.314;2023-05-29T00:27:57;10.40;;;8.88;;
40675;SDS011;26359;48.750;9.314;2023-05-29T00:30:22;10.25;;;7.97;;
40675;SDS011;26359;48.750;9.314;2023-05-29T00:32:48;10.07;;;7.93;;
40675;SDS011;26359;48.750;9.314;2023-05-29T00:35:14;12.23;;;8.45;;
40675;SDS011;26359;48.750;9.314;2023-05-29T00:37:39;11.13;;;8.02;;
40675;SDS011;26359;48.750;9.314;2023-05-29T00:40:05;11.15;;;9.75;;
40675;SDS011;26359;48.750;9.314;2023-05-29T00:42:32;12.90;;;8.65;;
40675;SDS011;26359;48.750;9.314;2023-05-29T00:44:57;9.85;;;8.90;;
40675;SDS011;26359;48.750;9.314;2023-05-29T00:47:23;12.25;;;8.05;;
40675;SDS011;26359;48.750;9.314;2023-05-29T00:49:49;9.45;;;8.40;;
40675;SDS011;26359;48.750;9.314;2023-05-29T00:52:16;10.60;;;7.88;;
40675;SDS011;26359;48.750;9.314;2023-05-29T00:54:44;8.38;;;6.65;;
40675;SDS011;26359;48.750;9.314;2023-05-29T00:57:10;9.40;;;7.57;;
40675;SDS011;26359;48.750;9.314;2023-05-29T00:59:37;10.60;;;7.63;;
40675;SDS011;26359;48.750;9.314;2023-05-29T01:02:05;9.70;;;7.72;;
40675;SDS011;26359;48.750;9.314;2023-05-29T01:04:31;10.45;;;7.55;;
40675;SDS011;26359;48.750;9.314;2023-05-29T01:06:59;11.00;;;7.78;;
40675;SDS011;26359;48.750;9.314;2023-05-29T01:09:29;10.10;;;7.53;;
40675;SDS011;26359;48.750;9.314;2023-05-29T01:14:45;9.23;;;6.82;;
40675;SDS011;26359;48.750;9.314;2023-05-29T01:17:17;12.90;;;8.38;;
40675;SDS011;26359;48.750;9.314;2023-05-29T01:23:34;11.00;;;9.15;;
40675;SDS011;26359;48.750;9.314;2023-05-29T01:25:47;9.30;;;8.07;;
40675;SDS011;26359;48.750;9.314;2023-05-29T01:28:23;14.15;;;8.93;;
40675;SDS011;26359;48.750;9.314;2023-05-29T01:30:52;10.50;;;8.63;;
40675;SDS011;26359;48.750;9.314;2023-05-29T01:33:21;11.85;;;9.23;;
40675;SDS011;26359;48.750;9.314;2023-05-29T01:35:47;17.55;;;11.77;;
40675;SDS011;26359;48.750;9.314;2023-05-29T01:38:12;10.52;;;8.43;;
40675;SDS011;26359;48.750;9.314;2023-05-29T01:40:38;12.93;;;9.55;;
40675;SDS011;26359;48.750;9.314;2023-05-29T01:43:04;11.65;;;10.48;;
40675;SDS011;26359;48.750;9.314;2023-05-29T01:45:30;12.85;;;10.45;;
40675;SDS011;26359;48.750;9.314;2023-05-29T01:47:56;13.05;;;9.40;;
40675;SDS011;26359;48.750;9.314;2023-05-29T01:50:22;12.13;;;9.65;;
40675;SDS011;26359;48.750;9.314;2023-05-29T01:52:49;14.95;;;13.50;;
40675;SDS011;26359;48.750;9.314;2023-05-29T01:55:14;31.55;;;29.30;;
40675;SDS011;26359;48.750;9.314;2023-05-29T01:57:40;48.88;;;45.28;;
40675;SDS011;26359;48.750;9.314;2023-05-29T02:00:06;37.58;;;34.78;;
40675;SDS011;26359;48.750;9.314;2023-05-29T02:02:37;17.67;;;15.98;;
40675;SDS011;26359;48.750;9.314;2023-05-29T02:05:04;15.63;;;13.95;;
40675;SDS011;26359;48.750;9.314;2023-05-29T02:07:31;12.63;;;11.02;;
40675;SDS011;26359;48.750;9.314;2023-05-29T02:09:56;13.25;;;11.70;;
40675;SDS011;26359;48.750;9.314;2023-05-29T02:12:22;14.93;;;11.18;;
40675;SDS011;26359;48.750;9.314;2023-05-29T02:14:47;11.00;;;9.77;;
40675;SDS011;26359;48.750;9.314;2023-05-29T02:17:13;12.55;;;10.27;;
40675;SDS011;26359;48.750;9.314;2023-05-29T02:19:39;15.13;;;11.18;;
40675;SDS011;26359;48.750;9.314;2023-05-29T02:22:05;17.42;;;14.02;;
40675;SDS011;26359;48.750;9.314;2023-05-29T02:24:32;18.88;;;14.25;;
40675;SDS011;26359;48.750;9.314;2023-05-29T02:26:57;17.05;;;15.45;;
40675;SDS011;26359;48.750;9.314;2023-05-29T02:29:23;18.13;;;16.15;;
40675;SDS011;26359;48.750;9.314;2023-05-29T02:31:48;15.73;;;14.07;;
40675;SDS011;26359;48.750;9.314;2023-05-29T02:34:14;15.68;;;14.07;;
40675;SDS011;26359;48.750;9.314;2023-05-29T02:36:39;17.42;;;15.65;;
40675;SDS011;26359;48.750;9.314;2023-05-29T02:39:05;22.25;;;20.48;;
40675;SDS011;26359;48.750;9.314;2023-05-29T02:41:31;17.83;;;16.15;;
40675;SDS011;26359;48.750;9.314;2023-05-29T02:43:56;20.77;;;18.85;;
40675;SDS011;26359;48.750;9.314;2023-05-29T02:46:22;16.50;;;14.98;;
40675;SDS011;26359;48.750;9.314;2023-05-29T02:48:47;15.00;;;13.40;;
40675;SDS011;26359;48.750;9.314;2023-05-29T02:51:13;16.65;;;11.27;;
40675;SDS011;26359;48.750;9.314;2023-05-29T02:53:39;16.95;;;15.35;;
40675;SDS011;26359;48.750;9.314;2023-05-29T02:56:05;19.88;;;18.17;;
40675;SDS011;26359;48.750;9.314;2023-05-29T02:58:32;29.48;;;27.25;;
40675;SDS011;26359;48.750;9.314;2023-05-29T03:00:58;32.03;;;29.77;;
40675;SDS011;26359;48.750;9.314;2023-05-29T03:03:25;28.55;;;26.27;;
40675;SDS011;26359;48.750;9.314;2023-05-29T03:05:51;26.38;;;24.38;;
40675;SDS011;26359;48.750;9.314;2023-05-29T03:08:17;20.52;;;18.73;;
40675;SDS011;26359;48.750;9.314;2023-05-29T03:10:42;23.75;;;21.92;;
40675;SDS011;26359;48.750;9.314;2023-05-29T03:13:09;25.98;;;23.92;;
40675;SDS011;26359;48.750;9.314;2023-05-29T03:15:35;21.90;;;20.00;;
40675;SDS011;26359;48.750;9.314;2023-05-29T03:18:00;19.83;;;18.02;;
40675;SDS011;26359;48.750;9.314;2023-05-29T03:20:26;16.52;;;14.98;;
40675;SDS011;26359;48.750;9.314;2023-05-29T03:22:53;20.73;;;19.02;;
40675;SDS011;26359;48.750;9.314;2023-05-29T03:25:18;15.85;;;14.27;;
40675;SDS011;26359;48.750;9.314;2023-05-29T03:27:45;22.00;;;19.92;;
40675;SDS011;26359;48.750;9.314;2023-05-29T03:30:10;17.38;;;15.77;;
40675;SDS011;26359;48.750;9.314;2023-05-29T03:32:36;15.40;;;14.00;;
40675;SDS011;26359;48.750;9.314;2023-05-29T03:35:02;16.40;;;14.52;;
40675;SDS011;26359;48.750;9.314;2023-05-29T03:37:28;15.07;;;13.68;;
40675;SDS011;26359;48.750;9.314;2023-05-29T03:39:54;18.63;;;16.88;;
40675;SDS011;26359;48.750;9.314;2023-05-29T03:42:20;18.52;;;16.80;;
40675;SDS011;26359;48.750;9.314;2023-05-29T03:44:45;19.02;;;17.27;;
40675;SDS011;26359;48.750;9.314;2023-05-29T03:47:11;22.30;;;20.35;;
40675;SDS011;26359;48.750;9.314;2023-05-29T03:49:37;22.75;;;20.50;;
40675;SDS011;26359;48.750;9.314;2023-05-29T03:52:03;21.65;;;19.73;;
40675;SDS011;26359;48.750;9.314;2023-05-29T03:54:29;25.20;;;23.13;;
40675;SDS011;26359;48.750;9.314;2023-05-29T03:56:54;27.35;;;25.13;;
40675;SDS011;26359;48.750;9.314;2023-05-29T03:59:20;25.70;;;23.52;;
40675;SDS011;26359;48.750;9.314;2023-05-29T04:01:45;29.55;;;27.38;;
40675;SDS011;26359;48.750;9.314;2023-05-29T04:04:11;28.00;;;25.90;;
40675;SDS011;26359;48.750;9.314;2023-05-29T04:06:37;36.13;;;33.22;;
40675;SDS011;26359;48.750;9.314;2023-05-29T04:09:05;23.73;;;21.90;;
40675;SDS011;26359;48.750;9.314;2023-05-29T04:11:33;16.40;;;14.70;;
40675;SDS011;26359;48.750;9.314;2023-05-29T04:14:00;16.75;;;13.20;;
40675;SDS011;26359;48.750;9.314;2023-05-29T04:16:26;15.30;;;13.73;;
40675;SDS011;26359;48.750;9.314;2023-05-29T04:18:53;17.13;;;15.52;;
40675;SDS011;26359;48.750;9.314;2023-05-29T04:21:18;15.05;;;13.35;;
40675;SDS011;26359;48.750;9.314;2023-05-29T04:23:44;16.38;;;14.82;;
40675;SDS011;26359;48.750;9.314;2023-05-29T04:26:09;16.40;;;14.80;;
40675;SDS011;26359;48.750;9.314;2023-05-29T04:28:35;17.60;;;15.88;;
40675;SDS011;26359;48.750;9.314;2023-05-29T04:31:02;16.95;;;15.48;;
40675;SDS011;26359;48.750;9.314;2023-05-29T04:33:28;19.00;;;17.30;;
40675;SDS011;26359;48.750;9.314;2023-05-29T04:35:54;20.40;;;18.50;;
40675;SDS011;26359;48.750;9.314;2023-05-29T04:38:20;23.42;;;21.52;;
40675;SDS011;26359;48.750;9.314;2023-05-29T04:40:50;21.25;;;19.65;;
40675;SDS011;26359;48.750;9.314;2023-05-29T04:43:16;25.35;;;23.33;;
40675;SDS011;26359;48.750;9.314;2023-05-29T04:45:41;24.52;;;22.65;;
40675;SDS011;26359;48.750;9.314;2023-05-29T04:48:07;23.80;;;21.75;;
40675;SDS011;26359;48.750;9.314;2023-05-29T04:50:33;45.58;;;42.35;;
40675;SDS011;26359;48.750;9.314;2023-05-29T04:52:59;48.33;;;45.13;;
40675;SDS011;26359;48.750;9.314;2023-05-29T04:55:25;15.63;;;14.05;;
40675;SDS011;26359;48.750;9.314;2023-05-29T04:57:51;18.25;;;16.38;;
40675;SDS011;26359;48.750;9.314;2023-05-29T05:00:16;25.20;;;23.05;;
40675;SDS011;26359;48.750;9.314;2023-05-29T05:02:43;56.67;;;52.95;;
40675;SDS011;26359;48.750;9.314;2023-05-29T05:05:09;35.78;;;33.38;;
40675;SDS011;26359;48.750;9.314;2023-05-29T05:07:35;28.25;;;25.85;;
40675;SDS011;26359;48.750;9.314;2023-05-29T05:10:01;19.38;;;16.70;;
40675;SDS011;26359;48.750;9.314;2023-05-29T05:12:30;58.38;;;54.63;;
40675;SDS011;26359;48.750;9.314;2023-05-29T05:14:55;35.95;;;33.28;;
40675;SDS011;26359;48.750;9.314;2023-05-29T05:17:21;15.13;;;12.70;;
40675;SDS011;26359;48.750;9.314;2023-05-29T05:19:46;25.55;;;23.33;;
40675;SDS011;26359;48.750;9.314;2023-05-29T05:22:14;24.85;;;22.83;;
40675;SDS011;26359;48.750;9.314;2023-05-29T05:24:39;21.48;;;18.63;;
40675;SDS011;26359;48.750;9.314;2023-05-29T05:27:05;27.52;;;25.20;;
40675;SDS011;26359;48.750;9.314;2023-05-29T05:29:31;26.45;;;24.17;;
40675;SDS011;26359;48.750;9.314;2023-05-29T05:31:56;25.77;;;23.55;;
40675;SDS011;26359;48.750;9.314;2023-05-29T05:34:22;24.77;;;22.67;;
40675;SDS011;26359;48.750;9.314;2023-05-29T05:36:47;21.48;;;19.52;;
40675;SDS011;26359;48.750;9.314;2023-05-29T05:39:14;17.63;;;15.30;;
40675;SDS011;26359;48.750;9.314;2023-05-29T05:41:39;28.65;;;20.23;;
40675;SDS011;26359;48.750;9.314;2023-05-29T05:44:05;15.57;;;13.98;;
40675;SDS011;26359;48.750;9.314;2023-05-29T05:46:31;18.20;;;16.55;;
40675;SDS011;26359;48.750;9.314;2023-05-29T05:48:56;16.92;;;15.20;;
40675;SDS011;26359;48.750;9.314;2023-05-29T05:51:22;16.65;;;14.95;;
40675;SDS011;26359;48.750;9.314;2023-05-29T05:53:51;18.58;;;16.75;;
40675;SDS011;26359;48.750;9.314;2023-05-29T05:56:17;18.35;;;16.55;;
40675;SDS011;26359;48.750;9.314;2023-05-29T05:58:42;22.33;;;20.42;;
40675;SDS011;26359;48.750;9.314;2023-05-29T06:01:08;20.42;;;18.52;;
40675;SDS011;26359;48.750;9.314;2023-05-29T06:03:34;17.08;;;15.30;;
40675;SDS011;26359;48.750;9.314;2023-05-29T06:06:01;16.10;;;14.35;;
40675;SDS011;26359;48.750;9.314;2023-05-29T06:08:27;15.98;;;14.38;;
40675;SDS011;26359;48.750;9.314;2023-05-29T06:10:52;15.57;;;14.02;;
40675;SDS011;26359;48.750;9.314;2023-05-29T06:13:18;17.50;;;12.93;;
40675;SDS011;26359;48.750;9.314;2023-05-29T06:15:44;16.52;;;13.55;;
40675;SDS011;26359;48.750;9.314;2023-05-29T06:18:10;14.45;;;10.80;;
40675;SDS011;26359;48.750;9.314;2023-05-29T06:20:35;16.45;;;13.88;;
40675;SDS011;26359;48.750;9.314;2023-05-29T06:23:01;12.98;;;10.48;;
40675;SDS011;26359;48.750;9.314;2023-05-29T06:25:27;16.02;;;13.93;;
40675;SDS011;26359;48.750;9.314;2023-05-29T06:27:58;13.18;;;10.85;;
40675;SDS011;26359;48.750;9.314;2023-05-29T06:30:24;14.10;;;12.27;;
40675;SDS011;26359;48.750;9.314;2023-05-29T06:32:50;16.67;;;11.40;;
40675;SDS011;26359;48.750;9.314;2023-05-29T06:35:15;17.52;;;15.93;;
40675;SDS011;26359;48.750;9.314;2023-05-29T06:37:41;18.10;;;16.35;;
40675;SDS011;26359;48.750;9.314;2023-05-29T06:40:07;42.97;;;39.83;;
40675;SDS011;26359;48.750;9.314;2023-05-29T06:42:32;52.53;;;49.08;;
40675;SDS011;26359;48.750;9.314;2023-05-29T06:44:58;13.20;;;11.90;;
40675;SDS011;26359;48.750;9.314;2023-05-29T06:47:23;12.43;;;9.80;;
40675;SDS011;26359;48.750;9.314;2023-05-29T06:49:49;12.52;;;10.45;;
40675;SDS011;26359;48.750;9.314;2023-05-29T06:52:15;12.73;;;9.43;;
40675;SDS011;26359;48.750;9.314;2023-05-29T06:54:40;15.00;;;13.50;;
40675;SDS011;26359;48.750;9.314;2023-05-29T06:57:06;17.00;;;15.60;;
40675;SDS011;26359;48.750;9.314;2023-05-29T06:59:32;24.08;;;19.80;;
40675;SDS011;26359;48.750;9.314;2023-05-29T07:01:57;24.50;;;22.70;;
40675;SDS011;26359;48.750;9.314;2023-05-29T07:04:23;14.07;;;12.35;;
40675;SDS011;26359;48.750;9.314;2023-05-29T07:06:48;17.35;;;16.02;;
40675;SDS011;26359;48.750;9.314;2023-05-29T07:09:14;19.30;;;13.55;;
40675;SDS011;26359;48.750;9.314;2023-05-29T07:11:39;13.35;;;12.30;;
40675;SDS011;26359;48.750;9.314;2023-05-29T07:14:05;9.90;;;8.85;;
40675;SDS011;26359;48.750;9.314;2023-05-29T07:16:31;13.20;;;9.32;;
40675;SDS011;26359;48.750;9.314;2023-05-29T07:18:57;16.42;;;14.77;;
40675;SDS011;26359;48.750;9.314;2023-05-29T07:21:23;12.48;;;11.15;;
40675;SDS011;26359;48.750;9.314;2023-05-29T07:23:48;10.70;;;9.70;;
40675;SDS011;26359;48.750;9.314;2023-05-29T07:26:14;11.13;;;9.82;;
40675;SDS011;26359;48.750;9.314;2023-05-29T07:28:39;9.35;;;8.50;;
40675;SDS011;26359;48.750;9.314;2023-05-29T07:31:05;9.90;;;8.93;;
40675;SDS011;26359;48.750;9.314;2023-05-29T07:33:30;11.95;;;9.52;;
40675;SDS011;26359;48.750;9.314;2023-05-29T07:35:56;9.70;;;8.70;;
40675;SDS011;26359;48.750;9.314;2023-05-29T07:38:21;12.20;;;10.32;;
40675;SDS011;26359;48.750;9.314;2023-05-29T07:40:47;12.60;;;11.52;;
40675;SDS011;26359;48.750;9.314;2023-05-29T07:43:12;13.10;;;11.52;;
40675;SDS011;26359;48.750;9.314;2023-05-29T07:45:38;13.52;;;12.25;;
40675;SDS011;26359;48.750;9.314;2023-05-29T07:48:03;13.27;;;11.90;;
40675;SDS011;26359;48.750;9.314;2023-05-29T07:50:29;11.20;;;10.10;;
40675;SDS011;26359;48.750;9.314;2023-05-29T07:52:55;11.88;;;10.77;;
40675;SDS011;26359;48.750;9.314;2023-05-29T07:55:21;12.65;;;11.35;;
40675;SDS011;26359;48.750;9.314;2023-05-29T07:57:46;11.70;;;10.60;;
40675;SDS011;26359;48.750;9.314;2023-05-29T08:00:13;12.82;;;11.07;;
40675;SDS011;26359;48.750;9.314;2023-05-29T08:02:39;11.45;;;10.25;;
40675;SDS011;26359;48.750;9.314;2023-05-29T08:05:05;13.10;;;11.07;;
40675;SDS011;26359;48.750;9.314;2023-05-29T08:07:32;12.18;;;11.05;;
40675;SDS011;26359;48.750;9.314;2023-05-29T08:09:58;9.23;;;8.02;;
40675;SDS011;26359;48.750;9.314;2023-05-29T08:12:24;11.40;;;7.47;;
40675;SDS011;26359;48.750;9.314;2023-05-29T08:14:50;8.90;;;8.00;;
40675;SDS011;26359;48.750;9.314;2023-05-29T08:17:15;9.13;;;7.88;;
40675;SDS011;26359;48.750;9.314;2023-05-29T08:19:41;9.27;;;7.20;;
40675;SDS011;26359;48.750;9.314;2023-05-29T08:22:07;9.73;;;8.82;;
40675;SDS011;26359;48.750;9.314;2023-05-29T08:24:32;9.05;;;7.53;;
40675;SDS011;26359;48.750;9.314;2023-05-29T08:26:58;12.60;;;8.75;;
40675;SDS011;26359;48.750;9.314;2023-05-29T08:29:23;11.80;;;10.68;;
40675;SDS011;26359;48.750;9.314;2023-05-29T08:31:49;17.90;;;16.60;;
40675;SDS011;26359;48.750;9.314;2023-05-29T08:34:14;11.95;;;10.85;;
40675;SDS011;26359;48.750;9.314;2023-05-29T08:36:40;14.05;;;12.77;;
40675;SDS011;26359;48.750;9.314;2023-05-29T08:39:06;14.20;;;13.00;;
40675;SDS011;26359;48.750;9.314;2023-05-29T08:44:10;9.35;;;8.45;;
40675;SDS011;26359;48.750;9.314;2023-05-29T08:46:39;9.90;;;8.90;;
40675;SDS011;26359;48.750;9.314;2023-05-29T08:49:05;9.70;;;8.70;;
40675;SDS011;26359;48.750;9.314;2023-05-29T08:51:35;11.02;;;9.05;;
40675;SDS011;26359;48.750;9.314;2023-05-29T08:54:03;9.30;;;8.35;;
40675;SDS011;26359;48.750;9.314;2023-05-29T08:56:29;12.15;;;9.00;;
40675;SDS011;26359;48.750;9.314;2023-05-29T08:58:55;10.32;;;9.23;;
40675;SDS011;26359;48.750;9.314;2023-05-29T09:01:22;10.52;;;9.43;;
40675;SDS011;26359;48.750;9.314;2023-05-29T09:03:49;11.43;;;10.32;;
40675;SDS011;26359;48.750;9.314;2023-05-29T09:06:15;11.32;;;10.13;;
40675;SDS011;26359;48.750;9.314;2023-05-29T09:08:41;9.70;;;8.77;;
40675;SDS011;26359;48.750;9.314;2023-05-29T09:11:08;11.30;;;10.05;;
40675;SDS011;26359;48.750;9.314;2023-05-29T09:13:33;13.75;;;12.57;;
40675;SDS011;26359;48.750;9.314;2023-05-29T09:15:59;12.93;;;11.73;;
40675;SDS011;26359;48.750;9.314;2023-05-29T09:18:28;13.57;;;8.80;;
40675;SDS011;26359;48.750;9.314;2023-05-29T09:20:56;9.57;;;8.70;;
40675;SDS011;26359;48.750;9.314;2023-05-29T09:23:22;13.07;;;10.77;;
40675;SDS011;26359;48.750;9.314;2023-05-29T09:25:51;14.93;;;13.73;;
40675;SDS011;26359;48.750;9.314;2023-05-29T09:28:18;15.80;;;13.10;;
40675;SDS011;26359;48.750;9.314;2023-05-29T09:30:46;13.40;;;12.20;;
40675;SDS011;26359;48.750;9.314;2023-05-29T09:33:13;13.00;;;11.90;;
40675;SDS011;26359;48.750;9.314;2023-05-29T09:35:41;11.20;;;10.07;;
40675;SDS011;26359;48.750;9.314;2023-05-29T09:38:08;9.65;;;8.80;;
40675;SDS011;26359;48.750;9.314;2023-05-29T09:40:36;14.60;;;13.20;;
40675;SDS011;26359;48.750;9.314;2023-05-29T09:43:09;40.53;;;37.80;;
40675;SDS011;26359;48.750;9.314;2023-05-29T09:45:45;55.08;;;51.35;;
40675;SDS011;26359;48.750;9.314;2023-05-29T09:48:18;67.90;;;63.83;;
40675;SDS011;26359;48.750;9.314;2023-05-29T09:50:48;46.00;;;43.20;;
40675;SDS011;26359;48.750;9.314;2023-05-29T09:53:18;9.13;;;7.82;;
40675;SDS011;26359;48.750;9.314;2023-05-29T09:55:49;9.32;;;7.82;;
40675;SDS011;26359;48.750;9.314;2023-05-29T09:58:19;11.85;;;9.45;;
40675;SDS011;26359;48.750;9.314;2023-05-29T10:00:46;11.18;;;10.15;;
40675;SDS011;26359;48.750;9.314;2023-05-29T10:03:13;9.88;;;9.02;;
40675;SDS011;26359;48.750;9.314;2023-05-29T10:05:39;11.40;;;10.10;;
40675;SDS011;26359;48.750;9.314;2023-05-29T10:08:07;17.58;;;16.15;;
40675;SDS011;26359;48.750;9.314;2023-05-29T10:10:36;21.92;;;20.02;;
40675;SDS011;26359;48.750;9.314;2023-05-29T10:13:05;16.15;;;14.95;;
40675;SDS011;26359;48.750;9.314;2023-05-29T10:15:35;14.40;;;13.15;;
40675;SDS011;26359;48.750;9.314;2023-05-29T10:18:02;14.15;;;12.35;;
40675;SDS011;26359;48.750;9.314;2023-05-29T10:20:29;10.32;;;9.10;;
40675;SDS011;26359;48.750;9.314;2023-05-29T10:22:59;8.00;;;6.90;;
40675;SDS011;26359;48.750;9.314;2023-05-29T10:25:28;13.82;;;12.65;;
40675;SDS011;26359;48.750;9.314;2023-05-29T10:27:56;12.65;;;11.65;;
40675;SDS011;26359;48.750;9.314;2023-05-29T10:30:38;16.95;;;15.55;;
40675;SDS011;26359;48.750;9.314;2023-05-29T10:38:31;14.07;;;12.77;;
40675;SDS011;26359;48.750;9.314;2023-05-29T10:41:19;13.57;;;12.35;;
40675;SDS011;26359;48.750;9.314;2023-05-29T10:43:49;11.88;;;10.68;;
40675;SDS011;26359;48.750;9.314;2023-05-29T10:46:14;10.32;;;9.43;;
40675;SDS011;26359;48.750;9.314;2023-05-29T10:48:40;10.00;;;8.75;;
40675;SDS011;26359;48.750;9.314;2023-05-29T10:51:06;10.73;;;9.50;;
40675;SDS011;26359;48.750;9.314;2023-05-29T10:53:33;11.82;;;9.30;;
40675;SDS011;26359;48.750;9.314;2023-05-29T10:55:59;10.57;;;8.85;;
40675;SDS011;26359;48.750;9.314;2023-05-29T10:58:26;8.38;;;7.57;;
40675;SDS011;26359;48.750;9.314;2023-05-29T11:00:52;10.25;;;9.35;;
40675;SDS011;26359;48.750;9.314;2023-05-29T11:03:21;10.68;;;9.60;;
40675;SDS011;26359;48.750;9.314;2023-05-29T11:05:58;8.88;;;7.97;;
40675;SDS011;26359;48.750;9.314;2023-05-29T11:08:45;10.73;;;7.95;;
40675;SDS011;26359;48.750;9.314;2023-05-29T11:13:57;9.15;;;7.85;;
40675;SDS011;26359;48.750;9.314;2023-05-29T11:18:56;8.45;;;7.45;;
40675;SDS011;26359;48.750;9.314;2023-05-29T11:24:06;8.63;;;7.93;;
40675;SDS011;26359;48.750;9.314;2023-05-29T11:26:32;15.50;;;14.38;;
40675;SDS011;26359;48.750;9.314;2023-05-29T11:29:03;10.77;;;9.57;;
40675;SDS011;26359;48.750;9.314;2023-05-29T11:31:35;11.93;;;11.00;;
40675;SDS011;26359;48.750;9.314;2023-05-29T11:34:03;18.90;;;17.50;;
40675;SDS011;26359;48.750;9.314;2023-05-29T11:36:33;9.77;;;8.82;;
40675;SDS011;26359;48.750;9.314;2023-05-29T11:38:59;9.30;;;8.35;;
40675;SDS011;26359;48.750;9.314;2023-05-29T11:41:26;9.48;;;8.18;;
40675;SDS011;26359;48.750;9.314;2023-05-29T11:44:02;9.65;;;8.85;;
40675;SDS011;26359;48.750;9.314;2023-05-29T11:46:30;11.15;;;10.18;;
40675;SDS011;26359;48.750;9.314;2023-05-29T11:48:57;11.30;;;10.30;;
40675;SDS011;26359;48.750;9.314;2023-05-29T11:51:23;20.10;;;18.65;;
40675;SDS011;26359;48.750;9.314;2023-05-29T11:53:49;27.52;;;25.73;;
40675;SDS011;26359;48.750;9.314;2023-05-29T11:56:17;23.48;;;22.08;;
40675;SDS011;26359;48.750;9.314;2023-05-29T11:58:43;27.08;;;25.33;;
40675;SDS011;26359;48.750;9.314;2023-05-29T12:01:10;15.65;;;14.52;;
40675;SDS011;26359;48.750;9.314;2023-05-29T12:03:39;10.82;;;9.93;;
40675;SDS011;26359;48.750;9.314;2023-05-29T12:06:05;12.02;;;11.13;;
40675;SDS011;26359;48.750;9.314;2023-05-29T12:08:32;11.88;;;10.88;;
40675;SDS011;26359;48.750;9.314;2023-05-29T12:10:58;12.32;;;11.25;;
40675;SDS011;26359;48.750;9.314;2023-05-29T12:13:23;10.43;;;9.45;;
40675;SDS011;26359;48.750;9.314;2023-05-29T12:15:49;10.93;;;9.93;;
40675;SDS011;26359;48.750;9.314;2023-05-29T12:18:18;17.55;;;16.20;;
40675;SDS011;26359;48.750;9.314;2023-05-29T12:20:44;11.63;;;10.70;;
40675;SDS011;26359;48.750;9.314;2023-05-29T12:23:09;7.78;;;7.18;;
40675;SDS011;26359;48.750;9.314;2023-05-29T12:25:37;8.18;;;7.38;;
40675;SDS011;26359;48.750;9.314;2023-05-29T12:28:02;9.63;;;7.03;;
40675;SDS011;26359;48.750;9.314;2023-05-29T12:30:29;9.48;;;8.70;;
40675;SDS011;26359;48.750;9.314;2023-05-29T12:32:55;10.65;;;9.73;;
40675;SDS011;26359;48.750;9.314;2023-05-29T12:35:25;8.10;;;7.40;;
40675;SDS011;26359;48.750;9.314;2023-05-29T12:37:56;8.73;;;8.02;;
40675;SDS011;26359;48.750;9.314;2023-05-29T12:40:26;11.68;;;10.63;;
40675;SDS011;26359;48.750;9.314;2023-05-29T12:43:07;22.20;;;20.80;;
40675;SDS011;26359;48.750;9.314;2023-05-29T12:45:35;9.00;;;8.20;;
40675;SDS011;26359;48.750;9.314;2023-05-29T12:48:02;14.65;;;13.60;;
40675;SDS011;26359;48.750;9.314;2023-05-29T12:50:41;8.13;;;6.72;;
40675;SDS011;26359;48.750;9.314;2023-05-29T12:53:07;12.80;;;8.00;;
40675;SDS011;26359;48.750;9.314;2023-05-29T12:55:37;9.13;;;8.32;;
40675;SDS011;26359;48.750;9.314;2023-05-29T12:58:10;9.50;;;8.68;;
40675;SDS011;26359;48.750;9.314;2023-05-29T13:00:40;10.82;;;10.02;;
40675;SDS011;26359;48.750;9.314;2023-05-29T13:03:07;9.10;;;8.10;;
40675;SDS011;26359;48.750;9.314;2023-05-29T13:05:33;10.20;;;9.38;;
40675;SDS011;26359;48.750;9.314;2023-05-29T13:07:59;10.60;;;9.82;;
40675;SDS011;26359;48.750;9.314;2023-05-29T13:10:25;10.68;;;9.88;;
40675;SDS011;26359;48.750;9.314;2023-05-29T13:12:52;12.38;;;11.40;;
40675;SDS011;26359;48.750;9.314;2023-05-29T13:15:21;10.02;;;9.00;;
40675;SDS011;26359;48.750;9.314;2023-05-29T13:17:47;9.43;;;8.57;;
40675;SDS011;26359;48.750;9.314;2023-05-29T13:20:13;7.95;;;7.25;;
40675;SDS011;26359;48.750;9.314;2023-05-29T13:22:39;8.43;;;6.63;;
40675;SDS011;26359;48.750;9.314;2023-05-29T13:25:07;9.02;;;7.68;;
40675;SDS011;26359;48.750;9.314;2023-05-29T13:27:34;7.78;;;6.97;;
40675;SDS011;26359;48.750;9.314;2023-05-29T13:30:01;7.97;;;7.25;;
40675;SDS011;26359;48.750;9.314;2023-05-29T13:32:28;8.02;;;7.32;;
40675;SDS011;26359;48.750;9.314;2023-05-29T13:34:54;10.32;;;9.45;;
40675;SDS011;26359;48.750;9.314;2023-05-29T13:37:19;8.63;;;7.80;;
40675;SDS011;26359;48.750;9.314;2023-05-29T13:39:45;8.55;;;7.80;;
40675;SDS011;26359;48.750;9.314;2023-05-29T13:42:11;9.25;;;8.45;;
40675;SDS011;26359;48.750;9.314;2023-05-29T13:44:36;8.88;;;8.18;;
40675;SDS011;26359;48.750;9.314;2023-05-29T13:47:02;11.82;;;10.82;;
40675;SDS011;26359;48.750;9.314;2023-05-29T13:49:30;13.32;;;12.40;;
40675;SDS011;26359;48.750;9.314;2023-05-29T13:51:55;9.70;;;8.90;;
40675;SDS011;26359;48.750;9.314;2023-05-29T13:54:21;10.95;;;10.15;;
40675;SDS011;26359;48.750;9.314;2023-05-29T13:56:47;15.77;;;14.77;;
40675;SDS011;26359;48.750;9.314;2023-05-29T13:59:13;14.95;;;13.63;;
40675;SDS011;26359;48.750;9.314;2023-05-29T14:01:38;17.42;;;15.75;;
40675;SDS011;26359;48.750;9.314;2023-05-29T14:04:04;14.48;;;13.43;;
40675;SDS011;26359;48.750;9.314;2023-05-29T14:06:29;15.27;;;14.07;;
40675;SDS011;26359;48.750;9.314;2023-05-29T14:08:55;16.25;;;15.18;;
40675;SDS011;26359;48.750;9.314;2023-05-29T14:11:21;16.88;;;15.73;;
40675;SDS011;26359;48.750;9.314;2023-05-29T14:13:46;9.52;;;8.73;;
40675;SDS011;26359;48.750;9.314;2023-05-29T14:16:12;14.50;;;13.50;;
40675;SDS011;26359;48.750;9.314;2023-05-29T14:18:39;30.00;;;28.23;;
40675;SDS011;26359;48.750;9.314;2023-05-29T14:21:04;15.45;;;14.38;;
40675;SDS011;26359;48.750;9.314;2023-05-29T14:23:30;32.45;;;30.52;;
40675;SDS011;26359;48.750;9.314;2023-05-29T14:25:55;16.25;;;15.20;;
40675;SDS011;26359;48.750;9.314;2023-05-29T14:28:21;24.85;;;23.35;;
40675;SDS011;26359;48.750;9.314;2023-05-29T14:30:46;14.93;;;13.68;;
40675;SDS011;26359;48.750;9.314;2023-05-29T14:33:12;12.35;;;11.45;;
40675;SDS011;26359;48.750;9.314;2023-05-29T14:35:37;12.30;;;11.32;;
40675;SDS011;26359;48.750;9.314;2023-05-29T14:38:03;10.70;;;9.90;;
40675;SDS011;26359;48.750;9.314;2023-05-29T14:40:28;9.85;;;8.75;;
40675;SDS011;26359;48.750;9.314;2023-05-29T14:42:56;9.63;;;8.77;;
40675;SDS011;26359;48.750;9.314;2023-05-29T14:45:21;10.55;;;9.57;;
40675;SDS011;26359;48.750;9.314;2023-05-29T14:47:46;11.13;;;10.18;;